createdAt,value
2022-08-05T00:00:53.717Z,14.313
2022-08-05T00:01:54.468Z,14.34345
2022-08-05T00:02:55.308Z,14.34028
2022-08-05T00:03:56.998Z,14.36533
2022-08-05T00:04:58.079Z,14.39134
2022-08-05T00:06:06.508Z,14.40624
2022-08-05T00:08:00.082Z,14.51122
2022-08-05T00:09:02.047Z,14.57845
2022-08-05T00:10:02.642Z,14.60287
2022-08-05T00:11:03.373Z,14.64886
2022-08-05T00:12:03.999Z,14.68058
2022-08-05T00:13:06.071Z,14.68184
2022-08-05T00:14:19.322Z,14.69421
2022-08-05T00:15:55.374Z,14.71388
2022-08-05T00:16:57.436Z,14.68153
2022-08-05T00:17:58.078Z,14.69326
2022-08-05T00:19:03.394Z,14.64981
2022-08-05T00:20:04.233Z,14.64315
2022-08-05T00:21:08.220Z,14.60034
2022-08-05T00:22:11.391Z,14.57211
2022-08-05T00:23:12.763Z,14.58226
2022-08-05T00:24:19.313Z,14.53881
2022-08-05T00:25:25.645Z,14.58321
2022-08-05T00:26:26.266Z,14.6089
2022-08-05T00:27:28.375Z,14.60478
2022-08-05T00:28:36.725Z,14.60161
2022-08-05T00:29:38.026Z,14.58702
2022-08-05T00:30:38.995Z,14.58258
2022-08-05T00:31:54.148Z,14.55911
2022-08-05T00:33:15.621Z,14.53881
2022-08-05T00:36:16.516Z,14.53818
2022-08-05T00:38:12.932Z,14.44145
2022-08-05T00:39:15.557Z,14.44208
2022-08-05T00:40:17.743Z,14.47316
2022-08-05T00:41:28.334Z,14.48394
2022-08-05T00:42:53.000Z,14.49378
2022-08-05T00:43:53.660Z,14.47633
2022-08-05T00:44:54.282Z,14.46111
2022-08-05T00:45:54.923Z,14.46999
2022-08-05T00:47:02.150Z,14.4332
2022-08-05T00:48:05.351Z,14.46745
2022-08-05T00:49:06.710Z,14.48965
2022-08-05T00:50:08.531Z,14.49948
2022-08-05T00:51:50.224Z,14.49631
2022-08-05T00:52:52.147Z,14.37072
2022-08-05T00:54:02.620Z,14.35994
2022-08-05T00:55:04.001Z,14.39419
2022-08-05T00:56:04.659Z,14.42083
2022-08-05T00:57:05.278Z,14.3869
2022-08-05T00:58:05.903Z,14.27145
2022-08-05T00:59:11.941Z,14.29048
2022-08-05T01:00:13.304Z,14.26067
2022-08-05T01:01:14.017Z,14.25211
2022-08-05T01:02:14.672Z,14.21437
2022-08-05T01:03:22.732Z,14.23054
2022-08-05T01:04:26.769Z,14.2261
2022-08-05T01:05:30.483Z,14.21215
2022-08-05T01:06:32.690Z,14.19661
2022-08-05T01:07:33.575Z,14.1262
2022-08-05T01:08:42.985Z,14.12874
2022-08-05T01:09:44.863Z,14.19439
2022-08-05T01:10:52.342Z,14.2058
2022-08-05T01:11:53.415Z,14.19407
2022-08-05T01:12:54.341Z,14.20707
2022-08-05T01:14:15.349Z,14.27875
2022-08-05T01:15:35.871Z,14.32347
2022-08-05T01:16:37.263Z,14.30856
2022-08-05T01:17:40.329Z,14.24672
2022-08-05T01:18:48.179Z,14.26701
2022-08-05T01:20:02.651Z,14.2908
2022-08-05T01:21:03.814Z,14.2778
2022-08-05T01:22:04.440Z,14.29778
2022-08-05T01:23:14.244Z,14.28509
2022-08-05T01:24:15.868Z,14.29207
2022-08-05T01:25:16.599Z,14.29809
2022-08-05T01:26:17.563Z,14.26448
2022-08-05T01:27:19.375Z,14.22515
2022-08-05T01:28:23.415Z,14.1706
2022-08-05T01:29:24.647Z,14.17314
2022-08-05T01:30:34.048Z,14.17726
2022-08-05T01:31:42.680Z,14.22579
2022-08-05T01:32:45.935Z,14.2445
2022-08-05T01:33:49.269Z,14.25813
2022-08-05T01:34:54.459Z,14.34789
2022-08-05T01:35:55.093Z,14.32759
2022-08-05T01:37:00.679Z,14.33298
2022-08-05T01:38:01.774Z,14.34091
2022-08-05T01:39:04.152Z,14.33932
2022-08-05T01:40:04.955Z,14.33425
2022-08-05T01:41:05.614Z,14.34916
2022-08-05T01:42:07.406Z,14.3425
2022-08-05T01:43:10.565Z,14.3038
2022-08-05T01:44:23.213Z,14.18012
2022-08-05T01:45:43.119Z,14.24989
2022-08-05T01:46:46.375Z,14.26543
2022-08-05T01:47:47.832Z,14.21881
2022-08-05T01:48:49.821Z,14.20168
2022-08-05T01:50:00.296Z,14.14555
2022-08-05T01:51:12.100Z,14.16521
2022-08-05T01:52:17.533Z,14.11605
2022-08-05T01:53:55.099Z,14.09988
2022-08-05T01:55:00.517Z,14.08973
2022-08-05T01:56:04.405Z,14.02249
2022-08-05T01:58:09.771Z,14.01044
2022-08-05T01:59:15.647Z,13.96319
2022-08-05T02:00:16.312Z,13.93908
2022-08-05T02:01:17.137Z,13.94892
2022-08-05T02:02:26.130Z,13.94828
2022-08-05T02:03:32.059Z,13.8858
2022-08-05T02:04:34.672Z,13.8747
2022-08-05T02:05:37.089Z,13.87978
2022-08-05T02:06:45.057Z,13.85916
2022-08-05T02:07:59.846Z,13.79637
2022-08-05T02:09:01.351Z,13.83887
2022-08-05T02:10:01.989Z,13.78654
2022-08-05T02:11:02.702Z,13.77607
2022-08-05T02:12:03.395Z,13.75387
2022-08-05T02:13:04.686Z,13.75736
2022-08-05T02:14:13.789Z,13.75482
2022-08-05T02:15:19.787Z,13.78907
2022-08-05T02:16:22.105Z,13.74499
2022-08-05T02:18:28.686Z,13.66317
2022-08-05T02:19:34.934Z,13.60196
2022-08-05T02:20:38.987Z,13.50713
2022-08-05T02:21:43.516Z,13.53345
2022-08-05T02:22:49.908Z,13.5325
2022-08-05T02:23:50.534Z,13.46939
2022-08-05T02:24:51.384Z,13.48715
2022-08-05T02:25:52.842Z,13.46273
2022-08-05T02:26:54.938Z,13.42467
2022-08-05T02:27:58.353Z,13.42848
2022-08-05T02:29:00.953Z,13.3771
2022-08-05T02:30:04.693Z,13.37678
2022-08-05T02:31:05.311Z,13.3974
2022-08-05T02:32:08.456Z,13.36981
2022-08-05T02:33:09.170Z,13.40945
2022-08-05T02:34:11.834Z,13.37774
2022-08-05T02:35:13.940Z,13.39137
2022-08-05T02:36:15.566Z,13.34539
2022-08-05T02:37:16.661Z,13.34285
2022-08-05T02:38:19.333Z,13.36156
2022-08-05T02:39:21.522Z,13.4012
2022-08-05T02:40:22.325Z,13.37044
2022-08-05T02:41:28.732Z,13.37615
2022-08-05T02:42:37.224Z,13.38186
2022-08-05T02:43:37.847Z,13.36917
2022-08-05T02:45:07.107Z,13.38566
2022-08-05T02:46:08.131Z,13.42626
2022-08-05T02:47:17.086Z,13.37012
2022-08-05T02:48:17.723Z,13.34792
2022-08-05T02:49:18.345Z,13.34095
2022-08-05T02:50:22.630Z,13.35585
2022-08-05T02:51:28.478Z,13.41294
2022-08-05T02:53:03.918Z,13.50428
2022-08-05T02:54:04.541Z,13.61496
2022-08-05T02:55:10.682Z,13.61433
2022-08-05T02:56:15.888Z,13.65365
2022-08-05T02:58:11.773Z,13.68632
2022-08-05T02:59:21.318Z,13.67427
2022-08-05T03:00:27.912Z,13.67522
2022-08-05T03:01:28.666Z,13.65714
2022-08-05T03:02:29.304Z,13.63336
2022-08-05T03:03:34.282Z,13.63748
2022-08-05T03:05:03.184Z,13.69044
2022-08-05T03:06:55.218Z,13.69774
2022-08-05T03:08:08.666Z,13.70376
2022-08-05T03:09:10.123Z,13.70249
2022-08-05T03:10:22.119Z,13.72977
2022-08-05T03:11:53.129Z,13.73706
2022-08-05T03:14:03.175Z,13.69805
2022-08-05T03:15:04.200Z,13.7212
2022-08-05T03:16:07.665Z,13.6083
2022-08-05T03:17:09.884Z,13.59054
2022-08-05T03:18:10.593Z,13.55058
2022-08-05T03:19:17.419Z,13.57246
2022-08-05T03:20:33.952Z,13.59466
2022-08-05T03:21:41.548Z,13.56327
2022-08-05T03:22:50.012Z,13.50301
2022-08-05T03:23:51.819Z,13.47066
2022-08-05T03:24:52.515Z,13.45893
2022-08-05T03:26:30.342Z,13.40311
2022-08-05T03:27:57.884Z,13.31938
2022-08-05T03:29:01.024Z,13.21504
2022-08-05T03:30:08.309Z,13.2309
2022-08-05T03:31:09.651Z,13.22551
2022-08-05T03:32:19.293Z,13.19855
2022-08-05T03:33:20.239Z,13.16525
2022-08-05T03:34:24.300Z,13.22963
2022-08-05T03:35:25.183Z,13.21124
2022-08-05T03:36:30.126Z,13.19126
2022-08-05T03:37:31.360Z,13.11704
2022-08-05T03:38:42.498Z,13.13798
2022-08-05T03:40:00.831Z,13.1995
2022-08-05T03:41:03.982Z,13.23629
2022-08-05T03:42:09.265Z,13.29655
2022-08-05T03:43:59.004Z,13.32985
2022-08-05T03:45:22.573Z,13.22456
2022-08-05T03:46:23.828Z,13.23439
2022-08-05T03:47:35.521Z,13.25786
2022-08-05T03:48:41.888Z,13.18079
2022-08-05T03:49:51.469Z,13.18238
2022-08-05T03:50:53.031Z,13.19506
2022-08-05T03:52:39.018Z,13.18967
2022-08-05T03:56:12.053Z,13.0736
2022-08-05T03:57:18.946Z,13.03934
2022-08-05T03:58:19.600Z,13.0349
2022-08-05T03:59:20.638Z,13.06947
2022-08-05T04:00:21.323Z,13.04696
2022-08-05T04:01:24.759Z,13.03522
2022-08-05T04:02:38.594Z,12.97655
2022-08-05T04:03:40.189Z,13.01492
2022-08-05T04:05:06.154Z,12.97496
2022-08-05T04:06:10.460Z,12.98257
2022-08-05T04:07:11.084Z,12.95847
2022-08-05T04:08:14.715Z,12.935
2022-08-05T04:09:36.508Z,12.92041
2022-08-05T04:10:38.321Z,12.93342
2022-08-05T04:11:50.846Z,12.95562
2022-08-05T04:12:53.397Z,12.91217
2022-08-05T04:13:55.512Z,12.91058
2022-08-05T04:14:57.770Z,12.89441
2022-08-05T04:16:04.644Z,12.92739
2022-08-05T04:17:05.611Z,12.97084
2022-08-05T04:18:06.847Z,12.9553
2022-08-05T04:19:10.513Z,12.94293
2022-08-05T04:20:11.525Z,12.92771
2022-08-05T04:22:05.061Z,12.97369
2022-08-05T04:23:12.650Z,12.99177
2022-08-05T04:24:19.088Z,12.99304
2022-08-05T04:25:38.389Z,13.05076
2022-08-05T04:26:59.048Z,13.01809
2022-08-05T04:28:11.056Z,13.0755
2022-08-05T04:29:14.364Z,12.99558
2022-08-05T04:30:15.179Z,12.99875
2022-08-05T04:31:16.006Z,12.97401
2022-08-05T04:32:30.624Z,12.90963
2022-08-05T04:34:18.048Z,12.96259
2022-08-05T04:35:20.943Z,12.88648
2022-08-05T04:36:45.930Z,12.87823
2022-08-05T04:38:02.438Z,12.85064
2022-08-05T04:39:07.498Z,12.83923
2022-08-05T04:40:08.209Z,12.81385
2022-08-05T04:41:09.599Z,12.89314
2022-08-05T04:42:10.747Z,12.85223
2022-08-05T04:43:16.335Z,12.84747
2022-08-05T04:44:21.362Z,12.86365
2022-08-05T04:45:47.845Z,12.91375
2022-08-05T04:46:49.908Z,12.83352
2022-08-05T04:47:53.539Z,12.82654
2022-08-05T04:48:54.166Z,12.86143
2022-08-05T04:50:02.113Z,12.89377
2022-08-05T04:51:11.700Z,12.80497
2022-08-05T04:52:12.454Z,12.84113
2022-08-05T04:53:13.057Z,12.79641
2022-08-05T04:54:14.887Z,12.80434
2022-08-05T04:55:15.657Z,12.76248
2022-08-05T04:56:34.374Z,12.76533
2022-08-05T04:57:37.685Z,12.81956
2022-08-05T04:58:38.307Z,12.80815
2022-08-05T04:59:40.748Z,12.8202
2022-08-05T05:00:41.587Z,12.77802
2022-08-05T05:02:07.853Z,12.78309
2022-08-05T05:03:42.165Z,12.89631
2022-08-05T05:04:43.853Z,12.82908
2022-08-05T05:06:39.850Z,12.85445
2022-08-05T05:07:52.750Z,12.90931
2022-08-05T05:08:53.733Z,12.88267
2022-08-05T05:09:56.085Z,12.83859
2022-08-05T05:10:57.719Z,12.90202
2022-08-05T05:12:01.969Z,12.88458
2022-08-05T05:13:04.595Z,12.85794
2022-08-05T05:14:05.394Z,12.90836
2022-08-05T05:15:10.781Z,12.96386
2022-08-05T05:16:11.807Z,12.91534
2022-08-05T05:17:12.423Z,12.95562
2022-08-05T05:18:13.148Z,12.93595
2022-08-05T05:19:19.449Z,12.99399
2022-08-05T05:20:28.248Z,12.96545
2022-08-05T05:21:29.660Z,13.01492
2022-08-05T05:22:33.808Z,12.98987
2022-08-05T05:23:39.328Z,13.02634
2022-08-05T05:25:17.282Z,12.98733
2022-08-05T05:26:18.215Z,13.07074
2022-08-05T05:27:18.939Z,13.05488
2022-08-05T05:28:21.823Z,13.01841
2022-08-05T05:30:04.651Z,13.06345
2022-08-05T05:31:06.015Z,13.033
2022-08-05T05:32:12.569Z,13.03522
2022-08-05T05:33:17.440Z,13.07486
2022-08-05T05:34:23.982Z,13.03871
2022-08-05T05:35:27.855Z,13.06757
2022-08-05T05:36:30.200Z,13.04093
2022-08-05T05:37:59.137Z,13.03903
2022-08-05T05:39:03.802Z,13.02919
2022-08-05T05:40:05.211Z,13.05203
2022-08-05T05:41:08.331Z,13.03744
2022-08-05T05:42:13.008Z,13.07613
2022-08-05T05:43:14.331Z,13.09104
2022-08-05T05:44:36.984Z,13.0958
2022-08-05T05:45:38.627Z,13.13671
2022-08-05T05:46:49.184Z,13.15478
2022-08-05T05:48:06.480Z,13.18808
2022-08-05T05:49:22.630Z,13.24168
2022-08-05T05:50:24.004Z,13.28323
2022-08-05T05:51:27.970Z,13.2569
2022-08-05T05:52:32.933Z,13.26674
2022-08-05T05:53:54.489Z,13.31811
2022-08-05T05:54:59.835Z,13.24485
2022-08-05T05:56:03.157Z,13.31145
2022-08-05T05:57:04.010Z,13.30796
2022-08-05T05:58:14.550Z,13.30923
2022-08-05T05:59:15.169Z,13.29052
2022-08-05T06:00:15.801Z,13.29496
2022-08-05T06:01:17.094Z,13.32921
2022-08-05T06:02:27.934Z,13.34697
2022-08-05T06:04:00.511Z,13.36822
2022-08-05T06:05:03.575Z,13.43863
2022-08-05T06:06:11.371Z,13.45385
2022-08-05T06:07:12.003Z,13.37774
2022-08-05T06:08:14.744Z,13.26166
2022-08-05T06:09:52.597Z,13.2975
2022-08-05T06:11:02.511Z,13.24327
2022-08-05T06:12:04.738Z,13.3438
2022-08-05T06:13:05.398Z,13.4196
2022-08-05T06:14:06.592Z,13.34539
2022-08-05T06:15:08.070Z,13.33207
2022-08-05T06:16:28.517Z,13.41865
2022-08-05T06:17:31.896Z,13.28101
2022-08-05T06:18:53.944Z,13.35871
2022-08-05T06:19:56.723Z,13.37361
2022-08-05T06:21:00.606Z,13.44085
2022-08-05T06:22:01.298Z,13.40089
2022-08-05T06:23:01.999Z,13.42531
2022-08-05T06:24:05.026Z,13.40565
2022-08-05T06:25:25.055Z,13.44814
2022-08-05T06:27:01.368Z,13.54646
2022-08-05T06:28:11.204Z,13.477
2022-08-05T06:29:43.225Z,13.52584
2022-08-05T06:30:52.906Z,13.75482
2022-08-05T06:31:53.555Z,13.72945
2022-08-05T06:32:54.181Z,13.64192
2022-08-05T06:34:07.550Z,13.70281
2022-08-05T06:35:15.375Z,13.75006
2022-08-05T06:36:25.962Z,13.74499
2022-08-05T06:37:55.856Z,13.72279
2022-08-05T06:38:59.223Z,13.7637
2022-08-05T06:39:59.957Z,13.74784
2022-08-05T06:41:03.167Z,13.71391
2022-08-05T06:42:04.358Z,13.64953
2022-08-05T06:43:05.046Z,13.73357
2022-08-05T06:44:57.905Z,13.71137
2022-08-05T06:46:06.828Z,13.67427
2022-08-05T06:47:10.337Z,13.69964
2022-08-05T06:48:50.248Z,13.79954
2022-08-05T06:50:01.964Z,13.81159
2022-08-05T06:51:09.610Z,13.72438
2022-08-05T06:52:37.188Z,13.74531
2022-08-05T06:53:39.555Z,13.81286
2022-08-05T06:54:40.190Z,13.80557
2022-08-05T06:55:41.920Z,13.83411
2022-08-05T06:56:42.722Z,13.85726
2022-08-05T06:58:03.933Z,13.95367
2022-08-05T06:59:21.287Z,14.09449
2022-08-05T07:00:24.956Z,14.08021
2022-08-05T07:01:31.994Z,14.04374
2022-08-05T07:02:33.181Z,14.14333
2022-08-05T07:03:36.024Z,14.17599
2022-08-05T07:04:36.660Z,14.29461
2022-08-05T07:05:41.139Z,14.32252
2022-08-05T07:06:42.087Z,14.35011
2022-08-05T07:07:43.688Z,14.39387
2022-08-05T07:08:47.906Z,14.52232
2022-08-05T07:09:58.216Z,14.64854
2022-08-05T07:10:59.227Z,14.64315
2022-08-05T07:12:02.566Z,14.58575
2022-08-05T07:13:03.170Z,14.54801
2022-08-05T07:14:03.789Z,14.65425
2022-08-05T07:15:04.919Z,14.74179
2022-08-05T07:16:09.550Z,14.7754
2022-08-05T07:18:00.997Z,14.70817
2022-08-05T07:19:10.360Z,14.96569
2022-08-05T07:20:32.031Z,14.95015
2022-08-05T07:21:59.256Z,15.07955
2022-08-05T07:23:01.487Z,14.96506
2022-08-05T07:24:05.148Z,15.01073
2022-08-05T07:25:22.675Z,15.01485
2022-08-05T07:26:25.864Z,14.90195
2022-08-05T07:27:27.718Z,14.79126
2022-08-05T07:28:59.700Z,14.9289
2022-08-05T07:30:25.451Z,14.94762
2022-08-05T07:31:40.846Z,15.02532
2022-08-05T07:32:55.575Z,15.0453
2022-08-05T07:33:59.825Z,15.19595
2022-08-05T07:35:00.600Z,15.40622
2022-08-05T07:37:06.247Z,15.25747
2022-08-05T07:38:12.261Z,15.13378
2022-08-05T07:39:24.857Z,15.18929
2022-08-05T07:42:14.241Z,15.32281
2022-08-05T07:43:20.839Z,15.14488
2022-08-05T07:44:21.821Z,15.07797
2022-08-05T07:45:56.310Z,15.06908
2022-08-05T07:46:58.699Z,15.05354
2022-08-05T07:48:01.073Z,15.02817
2022-08-05T07:49:05.522Z,15.02564
2022-08-05T07:50:07.113Z,15.18263
2022-08-05T07:51:22.933Z,15.36435
2022-08-05T07:52:24.559Z,15.34881
2022-08-05T07:53:27.061Z,15.31107
2022-08-05T07:54:38.626Z,15.06306
2022-08-05T07:55:44.633Z,15.04149
2022-08-05T07:57:18.112Z,15.11602
2022-08-05T07:58:58.576Z,15.11951
2022-08-05T07:59:59.950Z,15.13981
2022-08-05T08:01:00.614Z,15.2765
2022-08-05T08:02:07.017Z,15.16962
2022-08-05T08:03:17.068Z,15.10017
2022-08-05T08:04:22.978Z,15.19753
2022-08-05T08:05:39.845Z,15.34279
2022-08-05T08:06:41.275Z,15.27048
2022-08-05T08:07:59.745Z,15.27238
2022-08-05T08:09:01.207Z,15.22037
2022-08-05T08:10:01.835Z,15.13822
2022-08-05T08:11:02.516Z,15.1636
2022-08-05T08:12:09.780Z,15.18358
2022-08-05T08:13:21.992Z,15.1471
2022-08-05T08:14:30.091Z,15.10524
2022-08-05T08:16:34.455Z,15.23876
2022-08-05T08:17:53.004Z,15.37767
2022-08-05T08:18:54.097Z,15.20039
2022-08-05T08:20:22.756Z,15.16804
2022-08-05T08:21:43.816Z,14.93144
2022-08-05T08:22:48.727Z,15.00312
2022-08-05T08:24:00.969Z,15.06369
2022-08-05T08:25:15.637Z,15.02659
2022-08-05T08:26:17.241Z,15.00565
2022-08-05T08:27:35.759Z,15.07384
2022-08-05T08:28:58.956Z,15.05291
2022-08-05T08:30:05.767Z,15.11602
2022-08-05T08:31:19.609Z,15.0989
2022-08-05T08:32:27.742Z,15.13125
2022-08-05T08:33:28.943Z,15.13093
2022-08-05T08:34:36.841Z,15.29521
2022-08-05T08:35:41.546Z,15.31837
2022-08-05T08:36:57.732Z,15.46743
2022-08-05T08:38:03.782Z,15.73542
2022-08-05T08:39:04.475Z,15.8331
2022-08-05T08:40:15.592Z,15.85816
2022-08-05T08:41:16.968Z,16.14265
2022-08-05T08:42:33.648Z,16.14931
2022-08-05T08:45:20.002Z,15.90542
2022-08-05T08:46:26.586Z,15.79917
2022-08-05T08:48:05.785Z,15.91493
2022-08-05T08:50:07.777Z,16.13535
2022-08-05T08:52:04.407Z,16.40208
2022-08-05T08:53:08.161Z,16.69799
2022-08-05T08:54:13.768Z,16.85752
2022-08-05T08:55:14.532Z,16.93807
2022-08-05T08:56:20.469Z,16.95393
2022-08-05T08:57:22.864Z,16.9571
2022-08-05T08:58:37.617Z,16.91841
2022-08-05T08:59:47.163Z,16.86893
2022-08-05T09:00:49.752Z,17.17214
2022-08-05T09:01:57.505Z,17.3212
2022-08-05T09:03:01.696Z,17.03512
2022-08-05T09:04:02.273Z,16.68054
2022-08-05T09:05:17.836Z,16.75444
2022-08-05T09:06:21.275Z,16.86544
2022-08-05T09:07:34.315Z,16.9441
2022-08-05T09:08:40.873Z,16.97486
2022-08-05T09:09:45.222Z,17.07096
2022-08-05T09:10:50.871Z,17.0605
2022-08-05T09:11:55.291Z,16.91809
2022-08-05T09:13:04.823Z,16.81851
2022-08-05T09:14:54.073Z,16.82231
2022-08-05T09:16:00.019Z,16.7611
2022-08-05T09:17:00.643Z,16.78996
2022-08-05T09:18:01.284Z,16.73795
2022-08-05T09:19:06.852Z,16.63519
2022-08-05T09:20:08.478Z,16.7722
2022-08-05T09:21:11.495Z,16.92697
2022-08-05T09:22:22.056Z,17.04876
2022-08-05T09:23:43.304Z,17.14042
2022-08-05T09:24:44.461Z,17.17848
2022-08-05T09:26:02.156Z,17.38844
2022-08-05T09:27:05.006Z,17.40683
2022-08-05T09:28:10.081Z,17.41603
2022-08-05T09:29:17.568Z,17.22922
2022-08-05T09:30:23.367Z,17.30534
2022-08-05T09:32:41.270Z,17.37385
2022-08-05T09:33:46.354Z,17.66405
2022-08-05T09:34:51.585Z,17.5873
2022-08-05T09:35:52.307Z,17.6409
2022-08-05T09:36:56.268Z,17.6945
2022-08-05T09:38:12.434Z,17.52101
2022-08-05T09:39:22.239Z,17.37004
2022-08-05T09:40:23.340Z,17.39066
2022-08-05T09:41:25.061Z,17.53338
2022-08-05T09:42:28.034Z,17.42586
2022-08-05T09:43:40.916Z,17.31295
2022-08-05T09:44:42.648Z,17.35355
2022-08-05T09:46:06.204Z,17.37068
2022-08-05T09:47:10.275Z,17.61204
2022-08-05T09:48:13.590Z,17.73731
2022-08-05T09:49:19.141Z,17.83754
2022-08-05T09:50:38.447Z,17.71131
2022-08-05T09:51:45.007Z,17.51054
2022-08-05T09:52:53.010Z,17.63963
2022-08-05T09:53:59.098Z,17.51879
2022-08-05T09:55:06.632Z,17.32406
2022-08-05T09:57:01.479Z,17.06811
2022-08-05T09:58:02.787Z,17.27268
2022-08-05T09:59:04.048Z,17.32659
2022-08-05T10:00:08.213Z,17.21051
2022-08-05T10:01:15.364Z,17.14454
2022-08-05T10:02:16.591Z,17.20132
2022-08-05T10:03:21.156Z,17.3821
2022-08-05T10:04:29.318Z,17.73383
2022-08-05T10:05:32.843Z,17.72621
2022-08-05T10:06:33.827Z,17.75095
2022-08-05T10:08:36.552Z,17.763
2022-08-05T10:09:44.878Z,17.51911
2022-08-05T10:10:46.256Z,17.4303
2022-08-05T10:11:49.065Z,17.32152
2022-08-05T10:12:50.427Z,17.47946
2022-08-05T10:13:54.804Z,17.4728
2022-08-05T10:14:55.621Z,17.63011
2022-08-05T10:15:56.317Z,17.69037
2022-08-05T10:16:56.955Z,17.82834
2022-08-05T10:17:57.726Z,17.94093
2022-08-05T10:18:58.505Z,17.75095
2022-08-05T10:20:03.778Z,17.95425
2022-08-05T10:21:15.585Z,17.72209
2022-08-05T10:22:29.906Z,17.68023
2022-08-05T10:23:59.672Z,17.32596
2022-08-05T10:25:01.401Z,17.31581
2022-08-05T10:26:02.054Z,17.14518
2022-08-05T10:27:02.772Z,17.42047
2022-08-05T10:28:12.791Z,17.29075
2022-08-05T10:30:05.817Z,17.42491
2022-08-05T10:32:54.287Z,17.64026
2022-08-05T10:34:01.891Z,17.69196
2022-08-05T10:35:02.859Z,17.54797
2022-08-05T10:36:03.484Z,17.86672
2022-08-05T10:37:04.117Z,18.12266
2022-08-05T10:38:08.258Z,18.13947
2022-08-05T10:39:11.883Z,18.29298
2022-08-05T10:40:16.905Z,18.09666
2022-08-05T10:41:23.661Z,18.17246
2022-08-05T10:42:33.751Z,18.1455
2022-08-05T10:43:35.853Z,18.30757
2022-08-05T10:44:37.150Z,18.2064
2022-08-05T10:45:41.810Z,18.10998
2022-08-05T10:46:43.706Z,18.36688
2022-08-05T10:47:56.161Z,18.50548
2022-08-05T10:49:33.226Z,18.70022
2022-08-05T10:50:37.130Z,18.7811
2022-08-05T10:51:40.227Z,18.67802
2022-08-05T10:52:59.135Z,18.6536
2022-08-05T10:54:01.582Z,18.31772
2022-08-05T10:55:02.961Z,18.22923
2022-08-05T10:56:11.161Z,18.06684
2022-08-05T10:57:22.516Z,18.16897
2022-08-05T10:58:23.197Z,17.97804
2022-08-05T11:00:04.150Z,17.90224
2022-08-05T11:01:11.528Z,17.96821
2022-08-05T11:02:34.628Z,17.96726
2022-08-05T11:03:36.053Z,17.95806
2022-08-05T11:04:37.414Z,17.95679
2022-08-05T11:05:38.039Z,17.83119
2022-08-05T11:06:38.649Z,17.907
2022-08-05T11:08:02.405Z,17.92761
2022-08-05T11:09:07.387Z,18.05574
2022-08-05T11:10:10.001Z,17.90953
2022-08-05T11:11:16.313Z,17.95298
2022-08-05T11:12:17.597Z,17.92317
2022-08-05T11:13:18.217Z,17.87306
2022-08-05T11:14:18.836Z,17.90224
2022-08-05T11:15:20.881Z,17.88289
2022-08-05T11:16:21.917Z,17.89811
2022-08-05T11:17:57.031Z,17.95711
2022-08-05T11:19:01.217Z,17.74239
2022-08-05T11:21:12.792Z,17.92254
2022-08-05T11:22:13.427Z,18.21718
2022-08-05T11:23:15.180Z,18.49819
2022-08-05T11:24:30.595Z,18.75604
2022-08-05T11:26:06.106Z,19.07955
2022-08-05T11:27:09.642Z,19.13537
2022-08-05T11:28:10.306Z,19.25684
2022-08-05T11:29:18.054Z,19.16391
2022-08-05T11:30:18.824Z,18.98947
2022-08-05T11:31:19.658Z,18.90035
2022-08-05T11:32:57.376Z,18.34182
2022-08-05T11:33:58.643Z,17.9127
2022-08-05T11:34:59.287Z,17.60569
2022-08-05T11:36:07.583Z,17.42174
2022-08-05T11:38:30.195Z,17.24413
2022-08-05T11:39:34.217Z,17.03861
2022-08-05T11:40:40.079Z,17.01831
2022-08-05T11:42:02.085Z,16.8166
2022-08-05T11:43:05.296Z,16.67166
2022-08-05T11:44:08.361Z,16.58286
2022-08-05T11:45:14.320Z,16.52006
2022-08-05T11:46:32.731Z,16.58698
2022-08-05T11:47:49.729Z,16.57715
2022-08-05T11:48:50.933Z,16.4173
2022-08-05T11:49:51.735Z,16.47312
2022-08-05T11:50:52.872Z,16.49723
2022-08-05T11:51:53.636Z,16.48422
2022-08-05T11:52:57.752Z,16.45631
2022-08-05T11:53:59.042Z,16.57556
2022-08-05T11:55:07.687Z,16.58096
2022-08-05T11:56:11.477Z,16.71004
2022-08-05T11:57:25.635Z,16.78964
2022-08-05T11:58:28.009Z,16.89367
2022-08-05T11:59:29.085Z,17.01324
2022-08-05T12:00:44.329Z,16.92634
2022-08-05T12:01:46.010Z,17.03386
2022-08-05T12:02:46.742Z,17.14867
2022-08-05T12:03:56.060Z,17.29932
2022-08-05T12:04:59.004Z,17.19561
2022-08-05T12:06:00.439Z,17.21559
2022-08-05T12:07:01.821Z,17.25111
2022-08-05T12:08:10.228Z,17.23779
2022-08-05T12:09:19.995Z,17.33991
2022-08-05T12:10:20.870Z,17.47058
2022-08-05T12:11:21.489Z,17.53275
2022-08-05T12:12:22.599Z,17.40842
2022-08-05T12:13:48.120Z,17.46012
2022-08-05T12:14:49.883Z,17.33262
2022-08-05T12:15:50.521Z,17.22637
2022-08-05T12:16:56.574Z,16.98565
2022-08-05T12:18:10.298Z,16.76776
2022-08-05T12:20:26.159Z,16.64566
2022-08-05T12:21:30.130Z,16.44299
2022-08-05T12:22:31.034Z,16.35704
2022-08-05T12:23:32.811Z,16.33801
2022-08-05T12:24:33.441Z,16.36022
2022-08-05T12:25:34.605Z,16.45885
2022-08-05T12:26:35.220Z,16.35197
2022-08-05T12:27:36.007Z,16.40367
2022-08-05T12:28:53.672Z,16.39923
2022-08-05T12:29:56.960Z,16.57525
2022-08-05T12:30:57.802Z,16.65263
2022-08-05T12:32:04.533Z,16.8239
2022-08-05T12:33:27.395Z,16.92983
2022-08-05T12:34:28.889Z,16.85371
2022-08-05T12:35:37.217Z,17.06938
2022-08-05T12:36:40.524Z,16.93459
2022-08-05T12:37:43.044Z,17.0272
2022-08-05T12:38:44.213Z,16.92983
2022-08-05T12:39:44.871Z,17.00151
2022-08-05T12:40:51.865Z,17.04654
2022-08-05T12:41:58.033Z,17.14232
2022-08-05T12:42:58.845Z,17.12425
2022-08-05T12:43:59.453Z,17.28029
2022-08-05T12:45:00.113Z,17.38273
2022-08-05T12:46:00.762Z,17.31993
2022-08-05T12:47:01.749Z,17.43538
2022-08-05T12:48:26.959Z,17.50706
2022-08-05T12:50:02.408Z,17.62377
2022-08-05T12:51:06.122Z,17.79472
2022-08-05T12:52:26.724Z,17.80424
2022-08-05T12:53:36.953Z,17.89304
2022-08-05T12:54:39.301Z,17.9644
2022-08-05T12:55:40.232Z,17.91588
2022-08-05T12:56:45.165Z,17.85593
2022-08-05T12:58:50.750Z,17.86196
2022-08-05T13:01:58.099Z,17.90922
2022-08-05T13:03:07.103Z,17.89907
2022-08-05T13:04:14.837Z,17.93364
2022-08-05T13:05:21.356Z,17.8017
2022-08-05T13:06:22.657Z,17.77791
2022-08-05T13:07:41.412Z,17.73858
2022-08-05T13:08:57.017Z,17.73858
2022-08-05T13:09:59.690Z,17.72907
2022-08-05T13:11:01.764Z,17.73002
2022-08-05T13:12:03.609Z,17.68181
2022-08-05T13:13:04.479Z,17.67261
2022-08-05T13:14:09.644Z,17.65898
2022-08-05T13:15:17.211Z,17.62694
2022-08-05T13:16:27.713Z,17.63424
2022-08-05T13:17:31.852Z,17.65422
2022-08-05T13:18:41.906Z,17.62726
2022-08-05T13:19:52.883Z,17.6853
2022-08-05T13:20:53.707Z,17.74207
2022-08-05T13:21:56.022Z,17.71543
2022-08-05T13:22:57.690Z,17.71575
2022-08-05T13:23:58.793Z,17.66278
2022-08-05T13:25:00.601Z,17.53528
2022-08-05T13:26:01.821Z,17.61394
2022-08-05T13:27:02.463Z,17.64597
2022-08-05T13:28:03.111Z,17.66595
2022-08-05T13:29:05.131Z,17.63233
2022-08-05T13:30:35.274Z,17.64946
2022-08-05T13:32:04.300Z,17.61489
2022-08-05T13:33:05.979Z,17.4303
2022-08-05T13:34:24.831Z,17.47471
2022-08-05T13:35:43.297Z,17.40842
2022-08-05T13:36:52.338Z,17.26665
2022-08-05T13:37:55.511Z,17.22415
2022-08-05T13:38:56.646Z,17.21178
2022-08-05T13:40:13.838Z,17.2676
2022-08-05T13:41:17.759Z,17.29361
2022-08-05T13:42:18.406Z,17.35863
2022-08-05T13:43:21.998Z,17.43126
2022-08-05T13:44:23.025Z,17.53243
2022-08-05T13:45:24.830Z,17.57429